createdAt,value
2018-05-16T00:00:28.209Z,66.26
2018-05-16T00:02:54.976Z,67.33
2018-05-16T00:05:21.635Z,67.53
2018-05-16T00:07:48.355Z,67.44
2018-05-16T00:10:15.240Z,67.47
2018-05-16T00:12:41.888Z,68.12
2018-05-16T00:15:08.364Z,68.37
2018-05-16T00:17:38.125Z,68.55
2018-05-16T00:20:04.695Z,68.78
2018-05-16T00:22:31.266Z,69.21
2018-05-16T00:24:57.864Z,69.62
2018-05-16T00:27:31.314Z,69.60
2018-05-16T00:29:58.039Z,70.17
2018-05-16T00:32:29.488Z,69.79
2018-05-16T00:34:56.201Z,70.32
2018-05-16T00:37:23.906Z,70.71
2018-05-16T00:39:50.533Z,70.45
2018-05-16T00:42:17.263Z,70.89
2018-05-16T00:44:43.798Z,70.56
2018-05-16T00:47:11.516Z,71.18
2018-05-16T00:49:38.161Z,71.01
2018-05-16T00:52:04.881Z,71.27
2018-05-16T00:54:31.441Z,71.18
2018-05-16T00:56:58.269Z,71.49
2018-05-16T00:59:24.886Z,71.42
2018-05-16T01:01:51.438Z,71.71
2018-05-16T01:04:18.113Z,71.90
2018-05-16T01:06:44.690Z,72.24
2018-05-16T01:09:11.291Z,72.55
2018-05-16T01:11:37.908Z,72.32
2018-05-16T01:14:04.627Z,72.48
2018-05-16T01:16:31.253Z,72.78
2018-05-16T01:18:57.787Z,72.91
2018-05-16T01:21:24.445Z,72.73
2018-05-16T01:23:51.109Z,73.15
2018-05-16T01:26:17.825Z,73.05
2018-05-16T01:28:47.780Z,72.81
2018-05-16T01:31:14.429Z,72.97
2018-05-16T01:33:41.002Z,73.26
2018-05-16T01:36:07.665Z,72.90
2018-05-16T01:38:38.125Z,73.38
2018-05-16T01:41:04.728Z,74.24
2018-05-16T01:43:31.555Z,73.99
2018-05-16T01:45:58.209Z,74.23
2018-05-16T01:48:28.038Z,74.29
2018-05-16T01:50:55.162Z,74.13
2018-05-16T01:53:21.738Z,75.25
2018-05-16T01:55:48.369Z,75.52
2018-05-16T01:58:18.294Z,74.84
2018-05-16T02:00:44.914Z,75.32
2018-05-16T02:03:11.549Z,75.69
2018-05-16T02:05:38.266Z,75.17
2018-05-16T02:08:06.086Z,75.72
2018-05-16T02:10:32.756Z,75.17
2018-05-16T02:12:59.368Z,75.67
2018-05-16T02:15:25.921Z,75.80
2018-05-16T02:17:53.527Z,75.33
2018-05-16T02:20:20.329Z,76.39
2018-05-16T02:22:46.928Z,76.09
2018-05-16T02:25:13.560Z,76.70
2018-05-16T02:27:43.985Z,75.98
2018-05-16T02:30:10.651Z,76.25
2018-05-16T02:32:37.259Z,75.69
2018-05-16T02:35:03.872Z,76.51
2018-05-16T02:37:31.855Z,76.95
2018-05-16T02:39:58.429Z,77.49
2018-05-16T02:42:25.534Z,78.17
2018-05-16T02:44:52.067Z,77.36
2018-05-16T02:47:22.902Z,76.43
2018-05-16T02:49:49.582Z,75.74
2018-05-16T02:52:16.228Z,76.35
2018-05-16T02:54:42.938Z,76.17
2018-05-16T02:57:16.795Z,77.62
2018-05-16T02:59:43.611Z,76.80
2018-05-16T03:02:10.262Z,75.65
2018-05-16T03:04:36.989Z,76.38
2018-05-16T03:07:04.582Z,75.44
2018-05-16T03:09:31.173Z,74.99
2018-05-16T03:11:57.925Z,74.62
2018-05-16T03:14:24.609Z,75.14
2018-05-16T03:16:54.742Z,75.15
2018-05-16T03:19:21.392Z,74.57
2018-05-16T03:21:48.169Z,74.77
2018-05-16T03:24:14.819Z,74.34
2018-05-16T03:26:47.811Z,74.32
2018-05-16T03:29:14.527Z,74.28
2018-05-16T03:31:44.911Z,74.44
2018-05-16T03:34:11.469Z,73.48
2018-05-16T03:36:50.932Z,73.42
2018-05-16T03:39:17.582Z,73.42
2018-05-16T03:41:44.175Z,73.06
2018-05-16T03:44:10.787Z,72.62
2018-05-16T03:46:41.230Z,72.85
2018-05-16T03:49:07.945Z,72.27
2018-05-16T03:51:34.637Z,71.33
2018-05-16T03:54:01.322Z,71.11
2018-05-16T03:56:34.418Z,72.86
2018-05-16T03:59:12.938Z,72.56
2018-05-16T04:01:51.542Z,71.92
2018-05-16T04:04:18.213Z,71.44
2018-05-16T04:06:55.581Z,72.12
2018-05-16T04:09:22.269Z,72.16
2018-05-16T04:11:48.882Z,71.85
2018-05-16T04:14:15.393Z,71.87
2018-05-16T04:16:43.029Z,70.90
2018-05-16T04:19:09.742Z,70.39
2018-05-16T04:21:36.358Z,70.25
2018-05-16T04:24:02.982Z,69.61
2018-05-16T04:26:30.842Z,68.87
2018-05-16T04:28:57.589Z,69.49
2018-05-16T04:31:24.254Z,68.77
2018-05-16T04:33:50.935Z,68.49
2018-05-16T04:36:17.869Z,67.17
2018-05-16T04:38:44.586Z,67.62
2018-05-16T04:41:11.271Z,67.36
2018-05-16T04:43:37.859Z,66.97
2018-05-16T04:46:05.454Z,66.44
2018-05-16T04:48:32.089Z,65.42
2018-05-16T04:50:58.837Z,65.86
2018-05-16T04:53:25.445Z,65.77
2018-05-16T04:55:52.185Z,65.78
2018-05-16T04:58:19.107Z,65.61
2018-05-16T05:00:45.815Z,65.36
2018-05-16T05:03:12.460Z,65.19
2018-05-16T05:05:39.152Z,65.23
2018-05-16T05:08:16.288Z,64.73
2018-05-16T05:10:42.889Z,64.38
2018-05-16T05:13:09.577Z,62.70
2018-05-16T05:15:36.279Z,62.37
2018-05-16T05:18:06.010Z,61.91
2018-05-16T05:20:32.721Z,61.81
2018-05-16T05:22:59.283Z,60.87
2018-05-16T05:25:25.936Z,60.01
2018-05-16T05:27:59.035Z,60.93
2018-05-16T05:30:25.870Z,61.30
2018-05-16T05:32:52.356Z,61.74
2018-05-16T05:35:19.014Z,60.38
2018-05-16T05:37:59.071Z,59.46
2018-05-16T05:40:25.814Z,59.57
2018-05-16T05:42:52.393Z,59.48
2018-05-16T05:45:19.104Z,59.45
2018-05-16T05:47:50.150Z,59.94
2018-05-16T05:50:16.739Z,60.49
2018-05-16T05:52:43.349Z,59.79
2018-05-16T05:55:09.925Z,59.92
2018-05-16T05:57:37.756Z,58.97
2018-05-16T06:00:04.422Z,57.08
2018-05-16T06:02:30.950Z,56.73
2018-05-16T06:04:57.614Z,57.03
2018-05-16T06:07:24.423Z,57.28
2018-05-16T06:09:50.950Z,57.50
2018-05-16T06:12:17.573Z,57.18
2018-05-16T06:14:44.195Z,57.29
2018-05-16T06:17:17.648Z,56.87
2018-05-16T06:19:44.409Z,56.90
2018-05-16T06:22:11.016Z,55.97
2018-05-16T06:24:37.644Z,56.74
2018-05-16T06:27:05.529Z,55.56
2018-05-16T06:29:32.139Z,55.62
2018-05-16T06:31:58.818Z,55.37
2018-05-16T06:34:25.483Z,54.03
2018-05-16T06:36:56.564Z,54.68
2018-05-16T06:39:23.202Z,54.67
2018-05-16T06:41:49.801Z,54.09
2018-05-16T06:47:05.601Z,52.63
2018-05-16T06:49:32.289Z,52.36
2018-05-16T06:51:59.008Z,53.30
2018-05-16T06:54:25.729Z,53.83
2018-05-16T06:56:57.729Z,54.45
2018-05-16T06:59:24.301Z,52.87
2018-05-16T07:01:51.050Z,51.66
2018-05-16T07:04:17.640Z,51.63
2018-05-16T07:06:44.361Z,52.37
2018-05-16T07:09:11.069Z,52.65
2018-05-16T07:11:37.746Z,54.28
2018-05-16T07:14:04.411Z,53.06
2018-05-16T07:16:31.240Z,53.02
2018-05-16T07:18:57.881Z,52.71
2018-05-16T07:21:24.530Z,53.76
2018-05-16T07:23:51.180Z,53.48
2018-05-16T07:26:18.020Z,52.44
2018-05-16T07:28:44.682Z,52.93
2018-05-16T07:34:08.557Z,51.54
2018-05-16T07:36:36.489Z,53.19
2018-05-16T07:39:03.078Z,53.32
2018-05-16T07:41:29.745Z,53.58
2018-05-16T07:43:56.374Z,54.53
2018-05-16T07:46:23.271Z,54.46
2018-05-16T07:48:49.981Z,54.50
2018-05-16T07:51:16.635Z,54.31
2018-05-16T07:53:43.289Z,53.29
2018-05-16T07:56:13.581Z,54.01
2018-05-16T07:58:40.226Z,52.31
2018-05-16T08:01:06.792Z,53.75
2018-05-16T08:03:33.449Z,53.19
2018-05-16T08:06:00.448Z,52.58
2018-05-16T08:08:27.322Z,53.23
2018-05-16T08:10:54.568Z,51.80
2018-05-16T08:13:21.212Z,51.03
2018-05-16T08:16:06.526Z,50.50
2018-05-16T08:18:40.034Z,50.94
2018-05-16T08:21:06.792Z,50.29
2018-05-16T08:23:33.451Z,50.05
2018-05-16T08:26:00.285Z,50.04
2018-05-16T08:28:26.979Z,49.34
2018-05-16T08:30:53.577Z,50.19
2018-05-16T08:33:20.237Z,48.86
2018-05-16T08:35:47.010Z,47.66
2018-05-16T08:38:13.650Z,47.20
2018-05-16T08:40:40.214Z,48.46
2018-05-16T08:43:06.884Z,47.68
2018-05-16T08:45:33.422Z,46.59
2018-05-16T08:48:00.090Z,47.85
2018-05-16T08:50:26.749Z,47.64
2018-05-16T08:52:53.355Z,47.02
2018-05-16T08:55:19.926Z,46.21
2018-05-16T08:57:46.609Z,46.42
2018-05-16T09:00:13.316Z,45.10
2018-05-16T09:02:39.893Z,47.05
2018-05-16T09:05:06.577Z,47.46
2018-05-16T09:07:33.362Z,46.54
2018-05-16T09:09:59.982Z,45.10
2018-05-16T09:12:26.525Z,44.92
2018-05-16T09:14:53.175Z,46.39
2018-05-16T09:17:21.041Z,44.43
2018-05-16T09:19:47.671Z,45.92
2018-05-16T09:22:14.286Z,44.68
2018-05-16T09:24:40.845Z,42.91
2018-05-16T09:27:10.801Z,41.96
2018-05-16T09:29:37.504Z,42.27
2018-05-16T09:32:04.190Z,41.59
2018-05-16T09:34:30.904Z,40.63
2018-05-16T09:36:58.520Z,41.42
2018-05-16T09:39:25.215Z,41.14
2018-05-16T09:41:51.888Z,42.24
2018-05-16T09:44:18.506Z,39.08
2018-05-16T09:46:46.388Z,39.90
2018-05-16T09:49:13.042Z,42.05
2018-05-16T09:51:39.657Z,40.62
2018-05-16T09:54:06.333Z,41.54
2018-05-16T09:56:33.146Z,42.50
2018-05-16T09:58:59.790Z,41.55
2018-05-16T10:01:26.496Z,41.11
2018-05-16T10:03:53.137Z,40.17
2018-05-16T10:06:20.889Z,37.46
2018-05-16T10:08:47.521Z,37.64
2018-05-16T10:11:14.167Z,36.73
2018-05-16T10:13:41.026Z,37.43
2018-05-16T10:16:08.982Z,36.77
2018-05-16T10:18:35.677Z,39.00
2018-05-16T10:21:02.343Z,42.26
2018-05-16T10:23:28.951Z,42.70
2018-05-16T10:25:59.078Z,43.23
2018-05-16T10:28:25.704Z,42.83
2018-05-16T10:30:52.350Z,41.20
2018-05-16T10:33:19.050Z,39.81
2018-05-16T10:35:50.326Z,37.50
2018-05-16T10:38:16.966Z,36.52
2018-05-16T10:40:43.532Z,35.95
2018-05-16T10:43:10.481Z,36.97
2018-05-16T10:45:40.302Z,40.34
2018-05-16T10:48:06.937Z,36.82
2018-05-16T10:50:33.540Z,37.21
2018-05-16T10:53:00.167Z,35.09
2018-05-16T10:55:30.561Z,34.28
2018-05-16T10:58:05.651Z,37.13
2018-05-16T11:00:32.459Z,36.08
2018-05-16T11:02:59.184Z,36.35
2018-05-16T11:05:25.954Z,35.02
2018-05-16T11:07:52.682Z,36.47
2018-05-16T11:10:19.378Z,39.51
2018-05-16T11:12:46.149Z,38.35
2018-05-16T11:15:12.867Z,39.32
2018-05-16T11:17:39.529Z,35.68
2018-05-16T11:20:06.183Z,35.85
2018-05-16T11:22:32.856Z,40.31
2018-05-16T11:24:59.554Z,37.60
2018-05-16T11:27:26.126Z,38.30
2018-05-16T11:29:52.804Z,40.46
2018-05-16T11:32:19.461Z,38.30
2018-05-16T11:34:46.082Z,38.93
2018-05-16T11:37:16.122Z,39.67
2018-05-16T11:39:42.799Z,40.94
2018-05-16T11:42:09.493Z,41.96
2018-05-16T11:44:36.137Z,40.78
2018-05-16T11:49:29.901Z,36.34
2018-05-16T11:51:56.597Z,36.42
2018-05-16T11:54:23.317Z,37.18
2018-05-16T11:56:54.482Z,39.31
2018-05-16T11:59:21.248Z,41.92
2018-05-16T12:01:47.823Z,39.88
2018-05-16T12:04:14.446Z,38.68
2018-05-16T12:06:42.244Z,37.71
2018-05-16T12:09:09.082Z,35.99
2018-05-16T12:11:35.570Z,35.02
2018-05-16T12:14:02.149Z,36.54
2018-05-16T12:16:30.080Z,38.38
2018-05-16T12:18:56.768Z,37.61
2018-05-16T12:21:23.430Z,37.01
2018-05-16T12:23:50.078Z,34.78
2018-05-16T12:26:19.668Z,36.72
2018-05-16T12:28:46.274Z,37.03
2018-05-16T12:31:12.981Z,36.18
2018-05-16T12:33:39.501Z,34.54
2018-05-16T12:36:09.766Z,34.74
2018-05-16T12:38:36.463Z,36.85
2018-05-16T12:41:03.178Z,35.34
2018-05-16T12:43:30.687Z,35.53
2018-05-16T12:45:57.472Z,36.60
2018-05-16T12:48:23.987Z,35.93
2018-05-16T12:50:50.689Z,34.24
2018-05-16T12:53:17.357Z,33.31
2018-05-16T12:55:45.005Z,34.89
2018-05-16T12:58:11.647Z,36.87
2018-05-16T13:00:38.370Z,36.39
2018-05-16T13:03:05.010Z,35.64
2018-05-16T13:05:35.437Z,34.96
2018-05-16T13:08:02.108Z,36.78
2018-05-16T13:10:28.780Z,35.89
2018-05-16T13:12:55.442Z,39.61
2018-05-16T13:15:23.122Z,39.07
2018-05-16T13:17:49.689Z,40.85
2018-05-16T13:20:16.305Z,38.58
2018-05-16T13:22:42.950Z,39.61
2018-05-16T13:25:10.585Z,41.44
2018-05-16T13:27:37.216Z,43.70
2018-05-16T13:30:03.757Z,44.13
2018-05-16T13:32:30.310Z,44.21
2018-05-16T13:34:57.902Z,45.00
2018-05-16T13:37:24.554Z,43.81
2018-05-16T13:39:51.194Z,43.13
2018-05-16T13:42:18.251Z,43.41
2018-05-16T13:44:45.881Z,44.11
2018-05-16T13:47:12.469Z,41.29
2018-05-16T13:49:39.169Z,41.64
2018-05-16T13:55:05.701Z,40.49
2018-05-16T13:57:32.461Z,40.97
2018-05-16T13:59:59.570Z,40.25
2018-05-16T14:02:26.226Z,40.02
2018-05-16T14:04:56.737Z,38.75
2018-05-16T14:07:23.419Z,38.95
2018-05-16T14:09:50.102Z,39.47
2018-05-16T14:12:16.543Z,40.27
2018-05-16T14:14:43.156Z,38.22
2018-05-16T14:17:09.755Z,38.75
2018-05-16T14:19:36.440Z,39.98
2018-05-16T14:22:03.062Z,39.02
2018-05-16T14:24:29.697Z,38.05
2018-05-16T14:26:56.529Z,39.27
2018-05-16T14:29:23.085Z,41.14
2018-05-16T14:31:49.717Z,39.66
2018-05-16T14:34:16.461Z,41.57
2018-05-16T14:36:46.871Z,42.35
2018-05-16T14:39:13.501Z,40.56
2018-05-16T14:41:40.133Z,39.48
2018-05-16T14:44:06.715Z,39.47
2018-05-16T14:46:36.958Z,40.30
2018-05-16T14:49:03.540Z,42.69
2018-05-16T14:51:30.261Z,40.89
2018-05-16T14:53:56.778Z,40.56
2018-05-16T14:56:36.735Z,41.46
2018-05-16T14:59:03.342Z,43.18
2018-05-16T15:01:29.906Z,43.29
2018-05-16T15:03:56.539Z,44.48
2018-05-16T15:06:28.905Z,45.29
2018-05-16T15:08:55.613Z,45.41
2018-05-16T15:11:22.245Z,46.34
2018-05-16T15:13:48.873Z,46.53
2018-05-16T15:16:20.009Z,47.28
2018-05-16T15:18:46.710Z,49.27
2018-05-16T15:21:13.437Z,54.42
2018-05-16T15:23:39.969Z,56.43
2018-05-16T15:26:11.398Z,59.38
2018-05-16T15:28:38.029Z,63.30
2018-05-16T15:31:04.749Z,65.46
2018-05-16T15:33:31.377Z,66.88
2018-05-16T15:35:57.990Z,67.90
2018-05-16T15:38:24.638Z,67.35
2018-05-16T15:40:51.221Z,67.83
2018-05-16T15:43:17.849Z,66.47
2018-05-16T15:45:48.347Z,71.88
2018-05-16T15:48:15.022Z,72.05
2018-05-16T15:50:41.763Z,70.46
2018-05-16T15:53:08.384Z,68.82
2018-05-16T15:55:42.394Z,71.39
2018-05-16T15:58:08.937Z,71.58
2018-05-16T16:00:35.492Z,73.02
2018-05-16T16:03:02.144Z,73.30
2018-05-16T16:05:37.607Z,74.40
2018-05-16T16:08:04.413Z,74.27
2018-05-16T16:10:31.117Z,73.48
2018-05-16T16:12:57.977Z,73.30
2018-05-16T16:15:28.737Z,76.76
2018-05-16T16:17:55.383Z,76.30
2018-05-16T16:20:21.898Z,75.53
2018-05-16T16:22:48.463Z,76.59
2018-05-16T16:25:16.178Z,75.53
2018-05-16T16:27:42.976Z,76.03
2018-05-16T16:30:09.483Z,77.23
2018-05-16T16:32:36.151Z,75.17
2018-05-16T16:35:03.791Z,75.73
2018-05-16T16:37:30.478Z,77.05
2018-05-16T16:39:57.129Z,77.21
2018-05-16T16:42:23.919Z,75.36
2018-05-16T16:44:54.543Z,75.90
2018-05-16T16:47:21.140Z,76.53
2018-05-16T16:49:47.850Z,76.74
2018-05-16T16:52:14.494Z,78.55
2018-05-16T16:54:43.166Z,77.87
2018-05-16T16:57:10.623Z,77.13
2018-05-16T16:59:37.194Z,77.15
2018-05-16T17:02:03.769Z,76.94
2018-05-16T17:04:31.860Z,76.89
2018-05-16T17:06:59.148Z,76.75
2018-05-16T17:09:25.863Z,76.89
2018-05-16T17:11:52.408Z,78.08
2018-05-16T17:14:19.078Z,76.86
2018-05-16T17:16:46.242Z,76.44
2018-05-16T17:19:12.884Z,75.93
2018-05-16T17:21:39.567Z,77.57
2018-05-16T17:24:06.241Z,77.76
2018-05-16T17:26:32.923Z,77.23
2018-05-16T17:28:59.583Z,77.03
2018-05-16T17:31:26.286Z,75.71
2018-05-16T17:33:52.982Z,74.77
2018-05-16T17:36:19.746Z,73.91
2018-05-16T17:38:46.478Z,77.36
2018-05-16T17:41:13.195Z,76.78
2018-05-16T17:43:39.952Z,77.12
2018-05-16T17:46:12.918Z,75.74
2018-05-16T17:48:40.068Z,75.91
2018-05-16T17:51:06.733Z,74.20
2018-05-16T17:53:33.389Z,70.51
2018-05-16T17:56:03.525Z,66.91
2018-05-16T17:58:30.488Z,68.28
2018-05-16T18:00:57.098Z,69.25
2018-05-16T18:03:23.718Z,68.55
2018-05-16T18:05:58.562Z,71.11
2018-05-16T18:08:25.204Z,69.85
2018-05-16T18:10:51.975Z,70.70
2018-05-16T18:17:00.279Z,70.36
2018-05-16T18:19:26.849Z,69.19
2018-05-16T18:21:53.444Z,71.40
2018-05-16T18:24:24.074Z,70.16
2018-05-16T18:26:51.102Z,70.35
2018-05-16T18:29:17.795Z,69.11
2018-05-16T18:31:44.311Z,71.13
2018-05-16T18:34:14.515Z,72.15
2018-05-16T18:36:41.406Z,72.68
2018-05-16T18:39:08.761Z,72.86
2018-05-16T18:41:36.830Z,73.04
2018-05-16T18:44:05.035Z,71.27
2018-05-16T18:46:31.754Z,72.45
2018-05-16T18:48:58.615Z,71.31
2018-05-16T18:51:25.275Z,72.00
2018-05-16T18:53:52.251Z,73.16
2018-05-16T18:56:19.494Z,73.65
2018-05-16T18:58:46.215Z,74.46
2018-05-16T19:01:14.170Z,74.77
2018-05-16T19:03:40.786Z,74.55
2018-05-16T19:06:08.606Z,74.33
2018-05-16T19:08:35.204Z,74.64
2018-05-16T19:11:01.955Z,75.07
2018-05-16T19:13:30.019Z,74.76
2018-05-16T19:15:57.079Z,74.72
2018-05-16T19:18:23.655Z,74.06
2018-05-16T19:20:50.314Z,75.52
2018-05-16T19:23:16.907Z,73.23
2018-05-16T19:25:47.044Z,72.74
2018-05-16T19:28:13.795Z,72.22
2018-05-16T19:30:41.738Z,72.95
2018-05-16T19:33:08.624Z,73.02
2018-05-16T19:35:39.270Z,73.28
2018-05-16T19:38:05.937Z,73.15
2018-05-16T19:40:32.769Z,72.74
2018-05-16T19:42:59.254Z,72.39
2018-05-16T19:45:32.507Z,72.44
2018-05-16T19:47:59.138Z,72.13
2018-05-16T19:50:25.790Z,71.64
2018-05-16T19:52:53.086Z,72.24
2018-05-16T19:55:24.582Z,72.66
2018-05-16T19:57:51.608Z,72.43
2018-05-16T20:00:19.067Z,72.41
2018-05-16T20:02:45.789Z,72.05
2018-05-16T20:05:18.814Z,71.93
2018-05-16T20:07:45.487Z,71.42
2018-05-16T20:10:13.128Z,71.17
2018-05-16T20:12:39.849Z,70.97
2018-05-16T20:15:10.406Z,70.69
2018-05-16T20:17:37.178Z,70.66
2018-05-16T20:20:05.932Z,70.95
2018-05-16T20:22:32.609Z,71.04
2018-05-16T20:25:09.226Z,70.86
2018-05-16T20:27:35.871Z,70.85
2018-05-16T20:30:02.416Z,70.99
2018-05-16T20:32:28.945Z,70.93
2018-05-16T20:34:58.982Z,71.15
2018-05-16T20:37:25.684Z,70.91
2018-05-16T20:39:52.297Z,70.95
2018-05-16T20:42:18.917Z,70.70
2018-05-16T20:44:46.807Z,70.22
2018-05-16T20:47:13.375Z,69.93
2018-05-16T20:49:39.980Z,70.13
2018-05-16T20:52:06.700Z,70.00
2018-05-16T20:54:36.640Z,69.45
2018-05-16T20:57:03.296Z,69.28
2018-05-16T20:59:30.011Z,69.30
2018-05-16T21:02:03.097Z,68.69
2018-05-16T21:04:30.795Z,68.82
2018-05-16T21:06:57.359Z,68.51
2018-05-16T21:09:23.975Z,68.73
2018-05-16T21:11:51.177Z,68.26
2018-05-16T21:14:21.989Z,67.95
2018-05-16T21:16:48.657Z,67.80
2018-05-16T21:19:15.226Z,67.27
2018-05-16T21:21:41.774Z,67.58
2018-05-16T21:24:12.076Z,67.51
2018-05-16T21:26:38.657Z,68.09
2018-05-16T21:29:05.335Z,68.27
2018-05-16T21:31:32.032Z,68.11
2018-05-16T21:34:02.677Z,67.55
2018-05-16T21:36:29.291Z,67.10
2018-05-16T21:38:56.301Z,67.54
2018-05-16T21:41:22.969Z,67.05
2018-05-16T21:43:54.790Z,66.83
2018-05-16T21:46:21.490Z,66.46
2018-05-16T21:48:48.194Z,66.53
2018-05-16T21:51:14.816Z,66.50
2018-05-16T21:53:45.160Z,65.89
2018-05-16T21:56:11.892Z,65.79
2018-05-16T21:58:38.585Z,65.95
2018-05-16T22:01:05.214Z,65.81
2018-05-16T22:03:31.799Z,65.65
2018-05-16T22:05:58.529Z,65.41
2018-05-16T22:08:25.133Z,65.54
2018-05-16T22:10:51.824Z,65.06
2018-05-16T22:13:18.575Z,65.00
2018-05-16T22:15:55.289Z,65.06
2018-05-16T22:18:21.841Z,64.57
2018-05-16T22:20:48.516Z,64.19
2018-05-16T22:23:15.138Z,64.54
2018-05-16T22:25:41.808Z,64.94
2018-05-16T22:28:08.520Z,64.97
2018-05-16T22:30:41.213Z,64.98
2018-05-16T22:33:14.063Z,64.87
2018-05-16T22:35:46.790Z,64.42
2018-05-16T22:38:19.461Z,64.93
2018-05-16T22:40:52.013Z,64.50
2018-05-16T22:43:18.777Z,64.34
2018-05-16T22:45:49.412Z,64.48
2018-05-16T22:48:16.391Z,64.56
2018-05-16T22:50:43.361Z,64.06
2018-05-16T22:53:10.010Z,64.36
2018-05-16T22:55:37.682Z,64.73
2018-05-16T22:58:04.316Z,64.23
2018-05-16T23:00:31.105Z,64.30
2018-05-16T23:02:57.760Z,64.62
2018-05-16T23:05:25.448Z,64.56
2018-05-16T23:07:52.075Z,64.77
2018-05-16T23:10:18.753Z,64.93
2018-05-16T23:12:45.466Z,64.90
2018-05-16T23:15:16.506Z,65.00
2018-05-16T23:17:43.134Z,65.60
2018-05-16T23:20:09.814Z,65.83
2018-05-16T23:22:37.083Z,65.46
2018-05-16T23:25:03.872Z,65.61
2018-05-16T23:27:30.529Z,65.75
2018-05-16T23:29:57.254Z,65.67
2018-05-16T23:32:23.973Z,65.86
2018-05-16T23:34:54.704Z,65.67
2018-05-16T23:37:21.345Z,64.93
2018-05-16T23:39:48.099Z,64.59
2018-05-16T23:42:14.805Z,64.94
2018-05-16T23:44:42.438Z,64.79
2018-05-16T23:47:09.037Z,64.58
2018-05-16T23:49:35.675Z,64.46
2018-05-16T23:52:02.303Z,64.14
2018-05-16T23:54:30.041Z,64.33
2018-05-16T23:56:56.793Z,64.43
2018-05-16T23:59:23.425Z,64.32
